createdAt,value
2022-10-09T00:00:52.495Z,5.23
2022-10-09T00:03:19.256Z,5.73
2022-10-09T00:05:46.340Z,6.20
2022-10-09T00:08:13.352Z,6.03
2022-10-09T00:10:44.060Z,5.97
2022-10-09T00:13:12.764Z,5.77
2022-10-09T00:15:41.049Z,5.73
2022-10-09T00:18:09.564Z,5.37
2022-10-09T00:20:38.342Z,5.10
2022-10-09T00:23:05.899Z,4.83
2022-10-09T00:25:33.792Z,5.40
2022-10-09T00:28:00.938Z,4.43
2022-10-09T00:30:27.972Z,4.93
2022-10-09T00:32:55.344Z,4.10
2022-10-09T00:35:22.291Z,5.13
2022-10-09T00:37:49.089Z,5.20
2022-10-09T00:40:16.463Z,4.53
2022-10-09T00:42:45.858Z,4.10
2022-10-09T00:45:20.303Z,3.67
2022-10-09T00:47:50.407Z,5.00
2022-10-09T00:50:20.088Z,4.87
2022-10-09T00:52:50.942Z,4.70
2022-10-09T00:55:18.791Z,4.67
2022-10-09T00:57:46.367Z,5.27
2022-10-09T01:00:16.491Z,5.33
2022-10-09T01:02:43.397Z,5.10
2022-10-09T01:05:11.034Z,4.80
2022-10-09T01:08:18.515Z,4.93
2022-10-09T01:10:54.480Z,4.60
2022-10-09T01:13:34.707Z,4.40
2022-10-09T01:16:18.284Z,4.33
2022-10-09T01:19:11.273Z,4.93
2022-10-09T01:21:54.621Z,4.80
2022-10-09T01:24:36.098Z,5.30
2022-10-09T01:27:18.380Z,5.10
2022-10-09T01:29:49.476Z,4.80
2022-10-09T01:32:22.936Z,5.07
2022-10-09T01:34:52.328Z,5.10
2022-10-09T01:37:21.243Z,4.87
2022-10-09T01:39:49.500Z,4.67
2022-10-09T01:42:18.832Z,4.53
2022-10-09T01:44:45.799Z,4.67
2022-10-09T01:47:17.604Z,4.50
2022-10-09T01:49:53.059Z,4.97
2022-10-09T01:52:26.075Z,5.10
2022-10-09T01:55:02.904Z,4.60
2022-10-09T01:57:56.468Z,4.90
2022-10-09T02:00:23.631Z,4.97
2022-10-09T02:02:52.846Z,5.43
2022-10-09T02:05:27.584Z,5.03
2022-10-09T02:07:55.231Z,4.80
2022-10-09T02:10:23.517Z,5.13
2022-10-09T02:12:56.142Z,5.00
2022-10-09T02:15:27.367Z,4.50
2022-10-09T02:17:57.526Z,4.93
2022-10-09T02:20:37.513Z,4.73
2022-10-09T02:23:07.416Z,5.00
2022-10-09T02:25:36.752Z,4.93
2022-10-09T02:28:04.653Z,4.80
2022-10-09T02:30:51.186Z,4.47
2022-10-09T02:33:17.928Z,5.27
2022-10-09T02:35:45.152Z,4.27
2022-10-09T02:38:11.866Z,4.37
2022-10-09T02:40:38.639Z,4.47
2022-10-09T02:43:07.606Z,4.93
2022-10-09T02:45:34.325Z,4.33
2022-10-09T02:48:01.043Z,4.83
2022-10-09T02:50:28.116Z,4.57
2022-10-09T02:52:54.848Z,4.97
2022-10-09T02:55:21.589Z,4.90
2022-10-09T02:57:48.293Z,4.53
2022-10-09T03:00:15.415Z,4.60
2022-10-09T03:02:42.325Z,4.57
2022-10-09T03:05:10.139Z,4.80
2022-10-09T03:07:36.896Z,4.73
2022-10-09T03:10:03.760Z,4.60
2022-10-09T03:12:30.545Z,3.57
2022-10-09T03:14:57.262Z,4.47
2022-10-09T03:17:23.954Z,5.00
2022-10-09T03:19:50.722Z,5.30
2022-10-09T03:22:17.464Z,5.33
2022-10-09T03:24:44.166Z,5.90
2022-10-09T03:27:10.918Z,5.13
2022-10-09T03:29:37.930Z,4.47
2022-10-09T03:32:04.752Z,4.63
2022-10-09T03:34:31.514Z,5.30
2022-10-09T03:36:58.415Z,4.07
2022-10-09T03:39:25.112Z,4.43
2022-10-09T03:41:51.795Z,3.80
2022-10-09T03:44:21.284Z,4.23
2022-10-09T03:46:52.512Z,4.73
2022-10-09T03:49:19.223Z,3.40
2022-10-09T03:51:45.909Z,3.83
2022-10-09T03:54:12.627Z,3.20
2022-10-09T03:56:41.201Z,3.47
2022-10-09T03:59:09.722Z,4.37
2022-10-09T04:01:36.839Z,4.77
2022-10-09T04:04:03.553Z,4.40
2022-10-09T04:06:30.284Z,3.97
2022-10-09T04:08:57.217Z,4.70
2022-10-09T04:11:23.904Z,4.60
2022-10-09T04:13:50.648Z,4.63
2022-10-09T04:16:18.535Z,5.60
2022-10-09T04:18:45.470Z,5.10
2022-10-09T04:21:13.076Z,4.90
2022-10-09T04:23:39.919Z,5.30
2022-10-09T04:26:06.997Z,4.60
2022-10-09T04:28:34.152Z,5.20
2022-10-09T04:31:01.529Z,5.10
2022-10-09T04:33:31.013Z,4.83
2022-10-09T04:35:58.240Z,5.77
2022-10-09T04:38:25.416Z,5.60
2022-10-09T04:41:04.163Z,5.73
2022-10-09T04:43:32.689Z,5.13
2022-10-09T04:46:03.320Z,5.53
2022-10-09T04:48:30.242Z,4.73
2022-10-09T04:50:56.924Z,5.37
2022-10-09T04:53:23.615Z,5.47
2022-10-09T04:55:50.319Z,5.23
2022-10-09T04:58:17.251Z,5.50
2022-10-09T05:00:45.902Z,5.23
2022-10-09T05:03:13.438Z,4.70
2022-10-09T05:05:40.152Z,5.33
2022-10-09T05:08:07.323Z,5.20
2022-10-09T05:10:34.116Z,6.10
2022-10-09T05:13:01.567Z,5.30
2022-10-09T05:15:28.275Z,4.77
2022-10-09T05:17:55.200Z,5.30
2022-10-09T05:20:21.980Z,5.77
2022-10-09T05:22:49.529Z,5.17
2022-10-09T05:25:16.743Z,5.93
2022-10-09T05:27:43.723Z,5.60
2022-10-09T05:30:11.204Z,5.50
2022-10-09T05:32:37.999Z,6.30
2022-10-09T05:35:05.560Z,5.37
2022-10-09T05:37:32.309Z,6.00
2022-10-09T05:39:59.514Z,5.60
2022-10-09T05:42:28.447Z,5.57
2022-10-09T05:44:55.471Z,5.97
2022-10-09T05:47:22.233Z,5.17
2022-10-09T05:49:49.006Z,5.20
2022-10-09T05:52:15.916Z,5.30
2022-10-09T05:54:49.712Z,5.80
2022-10-09T05:57:16.668Z,5.73
2022-10-09T05:59:43.878Z,5.27
2022-10-09T06:02:10.635Z,4.97
2022-10-09T06:04:40.217Z,5.83
2022-10-09T06:07:07.386Z,5.50
2022-10-09T06:09:34.111Z,5.73
2022-10-09T06:12:01.216Z,5.63
2022-10-09T06:14:27.879Z,5.93
2022-10-09T06:16:54.936Z,5.90
2022-10-09T06:19:22.078Z,6.60
2022-10-09T06:21:49.321Z,6.03
2022-10-09T06:24:29.069Z,6.00
2022-10-09T06:27:01.744Z,6.30
2022-10-09T06:29:30.186Z,6.00
2022-10-09T06:31:57.372Z,4.80
2022-10-09T06:34:24.300Z,5.70
2022-10-09T06:36:53.415Z,5.87
2022-10-09T06:39:20.117Z,5.73
2022-10-09T06:41:47.082Z,6.13
2022-10-09T06:44:17.231Z,4.83
2022-10-09T06:46:48.479Z,5.07
2022-10-09T06:49:15.749Z,5.70
2022-10-09T06:51:42.636Z,5.30
2022-10-09T06:54:16.238Z,6.70
2022-10-09T06:56:43.657Z,6.57
2022-10-09T06:59:11.657Z,6.43
2022-10-09T07:01:38.669Z,6.57
2022-10-09T07:04:09.471Z,6.63
2022-10-09T07:06:42.135Z,6.83
2022-10-09T07:09:12.160Z,6.13
2022-10-09T07:11:49.297Z,6.10
2022-10-09T07:14:18.596Z,5.57
2022-10-09T07:16:50.253Z,6.40
2022-10-09T07:19:19.088Z,6.17
2022-10-09T07:21:49.267Z,7.17
2022-10-09T07:24:17.646Z,7.40
2022-10-09T07:26:46.643Z,6.40
2022-10-09T07:29:18.602Z,6.20
2022-10-09T07:31:45.785Z,6.90
2022-10-09T07:34:12.509Z,6.27
2022-10-09T07:36:39.475Z,6.90
2022-10-09T07:39:06.603Z,7.20
2022-10-09T07:41:33.933Z,6.67
2022-10-09T07:44:01.978Z,6.97
2022-10-09T07:46:33.334Z,6.50
2022-10-09T07:49:00.958Z,6.73
2022-10-09T07:51:29.439Z,5.97
2022-10-09T07:53:57.346Z,6.63
2022-10-09T07:56:26.823Z,7.47
2022-10-09T07:58:55.769Z,8.80
2022-10-09T08:01:23.373Z,8.03
2022-10-09T08:03:51.520Z,6.90
2022-10-09T08:06:18.939Z,6.23
2022-10-09T08:08:49.741Z,5.57
2022-10-09T08:11:17.721Z,6.20
2022-10-09T08:13:46.100Z,5.37
2022-10-09T08:16:15.833Z,5.03
2022-10-09T08:18:42.657Z,4.93
2022-10-09T08:21:15.594Z,5.63
2022-10-09T08:23:42.611Z,5.33
2022-10-09T08:26:20.839Z,4.90
2022-10-09T08:28:59.600Z,4.33
2022-10-09T08:31:28.205Z,4.23
2022-10-09T08:33:56.634Z,4.67
2022-10-09T08:36:23.734Z,4.83
2022-10-09T08:38:50.626Z,4.63
2022-10-09T08:41:23.663Z,4.73
2022-10-09T08:44:15.230Z,5.40
2022-10-09T08:46:51.026Z,4.73
2022-10-09T08:49:32.438Z,4.87
2022-10-09T08:52:14.612Z,5.10
2022-10-09T08:54:41.567Z,4.90
2022-10-09T08:57:16.574Z,4.77
2022-10-09T08:59:44.577Z,4.33
2022-10-09T09:02:35.704Z,4.97
2022-10-09T09:05:14.526Z,4.60
2022-10-09T09:07:49.523Z,4.30
2022-10-09T09:10:42.990Z,4.43
2022-10-09T09:13:34.035Z,4.87
2022-10-09T09:16:10.390Z,4.33
2022-10-09T09:18:49.219Z,4.37
2022-10-09T09:21:37.219Z,4.53
2022-10-09T09:24:32.251Z,4.70
2022-10-09T09:27:04.167Z,4.20
2022-10-09T09:29:36.642Z,4.37
2022-10-09T09:32:03.939Z,4.10
2022-10-09T09:34:41.943Z,4.20
2022-10-09T09:37:11.918Z,3.63
2022-10-09T09:42:27.370Z,3.90
2022-10-09T09:45:03.144Z,4.03
2022-10-09T09:47:50.103Z,3.67
2022-10-09T09:50:47.160Z,3.00
2022-10-09T09:53:45.382Z,3.27
2022-10-09T09:56:12.165Z,2.90
2022-10-09T09:58:44.956Z,3.50
2022-10-09T10:01:25.981Z,3.13
2022-10-09T10:03:55.402Z,3.40
2022-10-09T10:06:28.546Z,3.40
2022-10-09T10:09:03.848Z,3.10
2022-10-09T10:11:33.085Z,3.50
2022-10-09T10:14:06.789Z,3.27
2022-10-09T10:16:38.240Z,3.30
2022-10-09T10:19:06.224Z,3.97
2022-10-09T10:21:41.987Z,3.17
2022-10-09T10:24:13.551Z,2.90
2022-10-09T10:26:58.841Z,2.97
2022-10-09T10:29:38.188Z,2.83
2022-10-09T10:32:34.327Z,2.60
2022-10-09T10:35:20.083Z,3.17
2022-10-09T10:37:46.997Z,3.20
2022-10-09T10:40:25.837Z,2.60
2022-10-09T10:43:11.328Z,2.70
2022-10-09T10:46:30.676Z,2.90
2022-10-09T10:48:59.529Z,3.03
2022-10-09T10:51:44.236Z,3.10
2022-10-09T10:54:16.726Z,3.20
2022-10-09T10:56:53.210Z,3.23
2022-10-09T10:59:41.832Z,2.70
2022-10-09T11:02:20.976Z,2.50
2022-10-09T11:05:12.742Z,3.33
2022-10-09T11:08:04.941Z,2.80
2022-10-09T11:10:48.206Z,2.70
2022-10-09T11:13:25.400Z,2.77
2022-10-09T11:16:17.255Z,2.80
2022-10-09T11:19:17.757Z,2.43
2022-10-09T11:22:16.442Z,2.80
2022-10-09T11:25:13.116Z,2.90
2022-10-09T11:27:52.886Z,2.83
2022-10-09T11:30:20.673Z,2.40
2022-10-09T11:33:31.458Z,2.83
2022-10-09T11:36:33.226Z,2.60
2022-10-09T11:39:05.525Z,2.63
2022-10-09T11:41:35.053Z,2.40
2022-10-09T11:44:10.613Z,2.47
2022-10-09T11:47:01.879Z,2.90
2022-10-09T11:49:46.608Z,2.63
2022-10-09T11:52:40.745Z,2.17
2022-10-09T11:55:17.648Z,1.90
2022-10-09T11:57:44.404Z,2.07
2022-10-09T12:00:11.734Z,2.20
2022-10-09T12:02:38.849Z,2.47
2022-10-09T12:05:32.663Z,2.23
2022-10-09T12:08:15.491Z,1.60
2022-10-09T12:11:22.152Z,2.10
2022-10-09T12:13:54.195Z,2.00
2022-10-09T12:16:38.229Z,2.23
2022-10-09T12:19:22.643Z,2.00
2022-10-09T12:22:15.858Z,1.83
2022-10-09T12:24:51.552Z,2.23
2022-10-09T12:27:28.141Z,1.77
2022-10-09T12:30:03.638Z,1.80
2022-10-09T12:32:36.611Z,1.93
2022-10-09T12:35:26.359Z,1.80
2022-10-09T12:37:53.213Z,2.23
2022-10-09T12:40:30.057Z,1.97
2022-10-09T12:42:58.920Z,1.57
2022-10-09T12:45:30.534Z,1.47
2022-10-09T12:48:10.556Z,1.87
2022-10-09T12:50:37.648Z,1.60
2022-10-09T12:53:12.973Z,1.50
2022-10-09T12:55:46.198Z,1.53
2022-10-09T12:58:28.578Z,1.20
2022-10-09T13:00:59.103Z,2.20
2022-10-09T13:03:43.122Z,2.10
2022-10-09T13:06:22.220Z,1.47
2022-10-09T13:09:01.501Z,1.30
2022-10-09T13:11:37.210Z,1.60
2022-10-09T13:14:04.800Z,1.23
2022-10-09T13:16:47.630Z,1.50
2022-10-09T13:19:29.490Z,1.50
2022-10-09T13:22:08.704Z,1.70
2022-10-09T13:24:35.981Z,1.50
2022-10-09T13:27:04.595Z,1.57
2022-10-09T13:29:31.681Z,1.57
2022-10-09T13:31:58.757Z,1.43
2022-10-09T13:34:28.406Z,2.10
2022-10-09T13:36:56.570Z,1.60
2022-10-09T13:39:23.355Z,1.50
2022-10-09T13:41:55.630Z,1.60
2022-10-09T13:44:22.385Z,1.30
2022-10-09T13:46:49.242Z,1.40
2022-10-09T13:49:16.348Z,1.30
2022-10-09T13:51:43.217Z,1.47
2022-10-09T13:54:09.943Z,1.50
2022-10-09T13:56:36.719Z,1.40
2022-10-09T13:59:03.461Z,1.30
2022-10-09T14:01:30.318Z,1.43
2022-10-09T14:03:57.109Z,1.07
2022-10-09T14:06:24.108Z,1.30
2022-10-09T14:08:51.029Z,1.40
2022-10-09T14:11:17.740Z,1.27
2022-10-09T14:13:44.789Z,1.30
2022-10-09T14:16:11.497Z,1.23
2022-10-09T14:18:38.420Z,1.30
2022-10-09T14:21:14.780Z,1.47
2022-10-09T14:23:42.379Z,1.33
2022-10-09T14:26:09.494Z,1.40
2022-10-09T14:28:36.888Z,1.23
2022-10-09T14:31:07.526Z,1.40
2022-10-09T14:33:34.603Z,1.30
2022-10-09T14:36:09.639Z,1.27
2022-10-09T14:38:38.049Z,1.50
2022-10-09T14:41:07.726Z,1.57
2022-10-09T14:43:34.590Z,1.53
2022-10-09T14:46:21.328Z,1.30
2022-10-09T14:48:51.506Z,1.30
2022-10-09T14:51:20.861Z,1.40
2022-10-09T14:53:48.597Z,1.30
2022-10-09T14:56:18.090Z,1.30
2022-10-09T14:58:45.737Z,1.30
2022-10-09T15:01:15.111Z,0.93
2022-10-09T15:03:42.436Z,1.20
2022-10-09T15:06:11.027Z,0.97
2022-10-09T15:08:42.979Z,1.20
2022-10-09T15:11:12.037Z,1.30
2022-10-09T15:13:39.897Z,1.00
2022-10-09T15:16:14.222Z,0.90
2022-10-09T15:18:42.192Z,1.00
2022-10-09T15:21:20.906Z,1.00
2022-10-09T15:23:48.983Z,1.20
2022-10-09T15:26:16.139Z,1.10
2022-10-09T15:28:44.130Z,1.10
2022-10-09T15:31:28.754Z,1.20
2022-10-09T15:33:57.458Z,0.97
2022-10-09T15:36:26.156Z,1.27
2022-10-09T15:38:53.063Z,1.10
2022-10-09T15:41:40.975Z,1.10
2022-10-09T15:44:16.938Z,1.23
2022-10-09T15:46:46.266Z,1.10
2022-10-09T15:49:13.031Z,1.17
2022-10-09T15:51:40.289Z,1.10
2022-10-09T15:54:11.321Z,1.33
2022-10-09T15:56:40.106Z,1.80
2022-10-09T15:59:07.842Z,1.10
2022-10-09T16:01:34.713Z,1.37
2022-10-09T16:04:04.596Z,1.80
2022-10-09T16:06:31.415Z,1.60
2022-10-09T16:08:58.925Z,1.40
2022-10-09T16:11:26.551Z,1.30
2022-10-09T16:13:54.146Z,1.20
2022-10-09T16:16:27.029Z,1.20
2022-10-09T16:18:55.127Z,1.30
2022-10-09T16:21:24.289Z,1.37
2022-10-09T16:23:55.832Z,1.50
2022-10-09T16:26:25.963Z,1.50
2022-10-09T16:28:52.856Z,1.23
2022-10-09T16:31:25.965Z,1.20
2022-10-09T16:33:53.157Z,1.30
2022-10-09T16:36:20.257Z,1.50
2022-10-09T16:38:49.604Z,1.30
2022-10-09T16:41:18.913Z,1.70
2022-10-09T16:43:47.864Z,1.40
2022-10-09T16:46:22.267Z,1.30
2022-10-09T16:48:50.969Z,1.30
2022-10-09T16:51:23.862Z,1.67
2022-10-09T16:53:53.215Z,1.40
2022-10-09T16:56:23.089Z,1.47
2022-10-09T16:58:53.899Z,1.53
2022-10-09T17:01:24.575Z,1.60
2022-10-09T17:03:52.987Z,1.90
2022-10-09T17:06:19.985Z,1.70
2022-10-09T17:08:48.043Z,2.43
2022-10-09T17:11:18.926Z,2.23
2022-10-09T17:13:46.684Z,2.00
2022-10-09T17:16:18.421Z,2.23
2022-10-09T17:18:46.969Z,2.00
2022-10-09T17:21:18.883Z,2.00
2022-10-09T17:23:46.935Z,1.80
2022-10-09T17:26:18.776Z,1.87
2022-10-09T17:28:46.586Z,1.87
2022-10-09T17:31:19.663Z,2.13
2022-10-09T17:33:48.539Z,1.87
2022-10-09T17:36:18.471Z,1.80
2022-10-09T17:38:45.808Z,1.93
2022-10-09T17:41:14.762Z,2.17
2022-10-09T17:43:41.735Z,1.70
2022-10-09T17:46:09.089Z,1.90
2022-10-09T17:48:38.383Z,2.30
2022-10-09T17:51:05.348Z,2.40
2022-10-09T17:53:32.552Z,2.67
2022-10-09T17:56:04.392Z,2.20
2022-10-09T17:58:31.251Z,2.60
2022-10-09T18:00:58.206Z,2.50
2022-10-09T18:03:25.156Z,2.80
2022-10-09T18:05:53.044Z,2.23
2022-10-09T18:08:22.820Z,2.57
2022-10-09T18:11:00.359Z,2.77
2022-10-09T18:13:27.325Z,2.90
2022-10-09T18:15:54.059Z,2.90
2022-10-09T18:18:21.257Z,2.47
2022-10-09T18:20:48.075Z,2.83
2022-10-09T18:23:17.463Z,3.10
2022-10-09T18:25:47.619Z,3.00
2022-10-09T18:28:15.185Z,3.17
2022-10-09T18:30:45.479Z,2.73
2022-10-09T18:33:12.984Z,2.90
2022-10-09T18:35:40.704Z,3.80
2022-10-09T18:38:08.585Z,3.27
2022-10-09T18:40:45.203Z,3.53
2022-10-09T18:43:12.573Z,3.73
2022-10-09T18:45:44.353Z,3.93
2022-10-09T18:48:11.468Z,4.10
2022-10-09T18:50:38.336Z,3.87
2022-10-09T18:53:05.697Z,4.10
2022-10-09T18:55:32.512Z,3.93
2022-10-09T18:58:00.241Z,4.03
2022-10-09T19:00:27.176Z,3.70
2022-10-09T19:02:56.484Z,4.10
2022-10-09T19:05:23.369Z,3.50
2022-10-09T19:07:50.347Z,3.40
2022-10-09T19:10:17.283Z,3.60
2022-10-09T19:12:44.001Z,3.43
2022-10-09T19:15:12.335Z,3.87
2022-10-09T19:17:42.083Z,3.30
2022-10-09T19:20:09.126Z,3.93
2022-10-09T19:22:36.012Z,3.70
2022-10-09T19:25:03.328Z,3.60
2022-10-09T19:27:31.603Z,3.60
2022-10-09T19:29:58.533Z,4.00
2022-10-09T19:32:25.368Z,3.30
2022-10-09T19:34:55.353Z,3.60
2022-10-09T19:37:28.925Z,3.80
2022-10-09T19:39:57.031Z,3.77
2022-10-09T19:42:24.791Z,3.67
2022-10-09T19:44:51.664Z,3.97
2022-10-09T19:47:19.151Z,3.70
2022-10-09T19:49:45.972Z,3.77
2022-10-09T19:52:12.774Z,4.00
2022-10-09T19:54:40.283Z,3.60
2022-10-09T19:57:07.191Z,3.63
2022-10-09T19:59:34.093Z,3.97
2022-10-09T20:02:01.121Z,3.93
2022-10-09T20:04:29.224Z,4.20
2022-10-09T20:06:55.932Z,4.53
2022-10-09T20:09:22.866Z,4.43
2022-10-09T20:11:49.720Z,4.00
2022-10-09T20:14:16.493Z,4.47
2022-10-09T20:16:43.480Z,4.07
2022-10-09T20:19:10.340Z,4.50
2022-10-09T20:21:37.024Z,4.13
2022-10-09T20:24:04.338Z,4.30
2022-10-09T20:26:33.106Z,4.10
2022-10-09T20:29:00.360Z,4.13
2022-10-09T20:31:27.756Z,4.23
2022-10-09T20:33:55.564Z,4.57
2022-10-09T20:36:33.606Z,4.30
2022-10-09T20:39:02.779Z,4.70
2022-10-09T20:41:31.043Z,3.63
2022-10-09T20:44:00.450Z,4.53
2022-10-09T20:46:30.057Z,4.90
2022-10-09T20:48:57.971Z,4.50
2022-10-09T20:51:25.703Z,4.50
2022-10-09T20:53:57.543Z,4.13
2022-10-09T20:56:28.284Z,4.13
2022-10-09T20:58:55.769Z,4.40
2022-10-09T21:01:22.989Z,4.70
2022-10-09T21:03:50.036Z,4.27
2022-10-09T21:06:20.440Z,4.13
2022-10-09T21:08:47.469Z,4.00
2022-10-09T21:11:18.745Z,4.57
2022-10-09T21:13:46.566Z,4.43
2022-10-09T21:16:16.060Z,4.47
2022-10-09T21:18:43.088Z,4.27
2022-10-09T21:21:17.657Z,4.20
2022-10-09T21:23:45.337Z,4.23
2022-10-09T21:26:16.135Z,4.30
2022-10-09T21:28:43.848Z,4.20
2022-10-09T21:31:13.376Z,4.10
2022-10-09T21:33:40.097Z,4.20
2022-10-09T21:36:13.491Z,4.87
2022-10-09T21:38:40.171Z,4.40
2022-10-09T21:41:06.872Z,4.57
2022-10-09T21:43:33.728Z,4.70
2022-10-09T21:46:00.408Z,4.37
2022-10-09T21:48:27.124Z,5.37
2022-10-09T21:50:53.973Z,5.03
2022-10-09T21:53:20.649Z,4.97
2022-10-09T21:55:47.379Z,5.17
2022-10-09T21:58:14.115Z,4.53
2022-10-09T22:00:43.744Z,4.40
2022-10-09T22:03:10.481Z,5.17
2022-10-09T22:05:40.559Z,5.03
2022-10-09T22:08:07.512Z,4.70
2022-10-09T22:10:34.208Z,4.80
2022-10-09T22:13:00.976Z,4.60
2022-10-09T22:15:27.725Z,4.87
2022-10-09T22:17:54.463Z,4.73
2022-10-09T22:20:21.205Z,4.60
2022-10-09T22:22:48.321Z,4.80
2022-10-09T22:25:15.314Z,4.50
2022-10-09T22:27:42.091Z,4.40
2022-10-09T22:30:09.376Z,4.80
2022-10-09T22:32:36.301Z,4.70
2022-10-09T22:35:06.183Z,4.60
2022-10-09T22:37:32.912Z,4.70
2022-10-09T22:39:59.594Z,4.10
2022-10-09T22:42:26.347Z,4.80
2022-10-09T22:44:53.124Z,4.70
2022-10-09T22:47:19.886Z,4.37
2022-10-09T22:49:46.642Z,4.40
2022-10-09T22:52:13.412Z,4.70
2022-10-09T22:54:40.185Z,4.80
2022-10-09T22:57:06.982Z,4.63
2022-10-09T22:59:33.736Z,4.50
2022-10-09T23:02:00.594Z,5.23
2022-10-09T23:04:27.473Z,4.83
2022-10-09T23:06:56.914Z,4.67
2022-10-09T23:09:25.944Z,4.80
2022-10-09T23:11:52.772Z,4.60
2022-10-09T23:14:19.517Z,5.13
2022-10-09T23:16:46.311Z,5.00
2022-10-09T23:19:13.399Z,4.67
2022-10-09T23:21:42.227Z,4.90
2022-10-09T23:24:12.002Z,4.70
2022-10-09T23:26:39.672Z,4.63
2022-10-09T23:29:09.554Z,4.70
2022-10-09T23:31:36.834Z,4.80
2022-10-09T23:34:05.242Z,4.83
2022-10-09T23:36:32.173Z,4.67
2022-10-09T23:39:00.704Z,4.47
2022-10-09T23:41:28.923Z,4.87
2022-10-09T23:43:56.437Z,4.33
2022-10-09T23:46:29.368Z,4.90
2022-10-09T23:48:56.766Z,4.80
2022-10-09T23:51:25.131Z,5.03
2022-10-09T23:53:52.203Z,4.53
2022-10-09T23:56:28.511Z,4.53
2022-10-09T23:58:56.681Z,4.73
